Time;durP1;ratioP1;P1;durP2;ratioP2;P2;SDS_P1;SDS_P2;PMS_P1;PMS_P2;Temp;Humidity;BMP_temperature;BMP_pressure;BME280_temperature;BME280_humidity;BME280_pressure;Samples;Min_cycle;Max_cycle;Signal;HPM_P1;HPM_P2
2022/12/14 00:01:20;;;;;;;20.43;10.70;;;-1.30;99.90;;;;;;4974052;28;20434;-74
2022/12/14 00:03:46;;;;;;;22.80;12.77;;;-1.30;99.90;;;;;;4975830;28;20452;-74
2022/12/14 00:06:13;;;;;;;25.23;10.70;;;-1.30;99.90;;;;;;4974463;28;20913;-74
2022/12/14 00:08:39;;;;;;;17.80;9.87;;;-1.30;99.90;;;;;;4975661;28;20416;-74
2022/12/14 00:11:05;;;;;;;14.93;9.17;;;-1.30;99.90;;;;;;4980535;28;20481;-73
2022/12/14 00:13:31;;;;;;;15.87;10.37;;;-1.40;99.90;;;;;;4978174;28;20429;-74
2022/12/14 00:15:57;;;;;;;20.60;11.43;;;-1.40;99.90;;;;;;4975547;28;20389;-74
2022/12/14 00:18:22;;;;;;;19.47;10.40;;;-1.40;99.90;;;;;;4975497;28;20795;-74
2022/12/14 00:20:48;;;;;;;20.60;11.57;;;-1.40;99.90;;;;;;4975188;28;20578;-72
2022/12/14 00:23:13;;;;;;;24.57;11.70;;;-1.50;99.90;;;;;;4975359;28;20185;-74
2022/12/14 00:25:39;;;;;;;19.30;11.33;;;-1.40;99.90;;;;;;4975219;28;20179;-75
2022/12/14 00:28:05;;;;;;;21.70;10.70;;;-1.40;99.90;;;;;;4975557;28;20223;-74
2022/12/14 00:30:30;;;;;;;17.53;10.13;;;-1.40;99.90;;;;;;4975346;28;20559;-74
2022/12/14 00:32:56;;;;;;;22.70;11.00;;;-1.40;99.90;;;;;;4986838;28;20225;-74
2022/12/14 00:35:22;;;;;;;24.33;10.60;;;-1.40;99.90;;;;;;4994685;28;20175;-73
2022/12/14 00:37:48;;;;;;;18.00;9.97;;;-1.40;99.90;;;;;;4994605;28;20690;-74
2022/12/14 00:40:13;;;;;;;22.37;10.50;;;-1.40;99.90;;;;;;4995838;28;20418;-74
2022/12/14 00:42:39;;;;;;;18.70;10.20;;;-1.40;99.90;;;;;;4994195;28;20211;-74
2022/12/14 00:45:06;;;;;;;19.27;10.57;;;-1.30;99.90;;;;;;4994565;28;20201;-74
2022/12/14 00:47:31;;;;;;;23.10;12.40;;;-1.30;99.90;;;;;;4994523;28;20183;-75
2022/12/14 00:49:57;;;;;;;24.77;10.60;;;-1.40;99.90;;;;;;4994268;28;20456;-75
2022/12/14 00:52:22;;;;;;;29.00;13.90;;;-1.40;99.90;;;;;;4993883;28;20298;-74
2022/12/14 00:54:48;;;;;;;19.90;10.73;;;-1.40;99.90;;;;;;4992575;28;20277;-74
2022/12/14 00:57:13;;;;;;;24.13;11.07;;;-1.40;99.90;;;;;;4993502;28;20545;-74
2022/12/14 00:59:39;;;;;;;19.63;12.07;;;-1.40;99.90;;;;;;4994085;28;20196;-75
2022/12/14 01:02:05;;;;;;;30.07;12.80;;;-1.40;99.90;;;;;;4993971;28;20237;-74
2022/12/14 01:04:30;;;;;;;16.00;9.50;;;-1.40;99.90;;;;;;4994001;28;20289;-75
2022/12/14 01:06:56;;;;;;;16.23;9.77;;;-1.40;99.90;;;;;;4994211;28;20402;-75
2022/12/14 01:09:23;;;;;;;18.07;10.17;;;-1.40;99.90;;;;;;4993880;28;20179;-75
2022/12/14 01:11:50;;;;;;;17.40;9.63;;;-1.40;99.90;;;;;;4993742;28;20217;-75
2022/12/14 01:14:18;;;;;;;17.77;10.23;;;-1.40;99.90;;;;;;4993868;28;20949;-75
2022/12/14 01:16:43;;;;;;;19.30;10.80;;;-1.30;99.90;;;;;;4994193;28;20388;-75
2022/12/14 01:19:10;;;;;;;18.20;10.00;;;-1.30;99.90;;;;;;4994166;28;20411;-75
2022/12/14 01:21:36;;;;;;;19.47;11.30;;;-1.30;99.90;;;;;;4993618;28;20238;-74
2022/12/14 01:24:03;;;;;;;17.00;10.10;;;-1.30;99.90;;;;;;4994704;28;20955;-75
2022/12/14 01:26:32;;;;;;;18.33;10.93;;;-1.30;99.90;;;;;;4994462;28;20270;-74
2022/12/14 01:28:58;;;;;;;16.80;10.73;;;-1.30;99.90;;;;;;4994134;28;20414;-72
2022/12/14 01:31:27;;;;;;;17.63;11.70;;;-1.30;99.90;;;;;;4993177;28;20470;-74
2022/12/14 01:33:53;;;;;;;21.17;10.57;;;-1.30;99.90;;;;;;4994596;28;20481;-74
2022/12/14 01:36:21;;;;;;;18.17;9.97;;;-1.30;99.90;;;;;;4994517;28;20894;-74
2022/12/14 01:38:51;;;;;;;17.30;10.47;;;-1.30;99.90;;;;;;4992779;28;20179;-74
2022/12/14 01:41:48;;;;;;;17.77;11.13;;;-1.20;99.90;;;;;;4991047;28;20413;-74
2022/12/14 01:44:13;;;;;;;16.80;10.20;;;-1.20;99.90;;;;;;4978080;28;20408;-74
2022/12/14 01:46:47;;;;;;;23.80;11.07;;;-1.20;99.90;;;;;;4993346;28;20726;-74
2022/12/14 01:49:17;;;;;;;21.50;12.40;;;-1.20;99.90;;;;;;4993307;28;20182;-74
2022/12/14 01:51:50;;;;;;;23.50;9.70;;;-1.20;99.90;;;;;;4992896;28;20437;-74
2022/12/14 01:54:15;;;;;;;19.83;10.50;;;-1.20;99.90;;;;;;4993117;28;20415;-75
2022/12/14 01:56:43;;;;;;;20.47;9.83;;;-1.30;99.90;;;;;;4993243;28;20388;-74
2022/12/14 01:59:16;;;;;;;16.53;10.03;;;-1.30;99.90;;;;;;4993285;28;20182;-74
2022/12/14 03:32:23;;;;;;;22.40;11.77;;;-0.90;99.90;;;;;;5348172;22;21018;-74
2022/12/14 03:34:55;;;;;;;20.33;11.83;;;-0.90;99.90;;;;;;5021514;28;20445;-75
2022/12/14 03:37:40;;;;;;;20.13;12.00;;;-0.90;99.90;;;;;;5018172;28;20413;-74
2022/12/14 03:40:09;;;;;;;25.50;12.63;;;-0.90;99.90;;;;;;5014562;28;20918;-73
2022/12/14 03:42:45;;;;;;;20.67;12.87;;;-0.90;99.90;;;;;;5031516;28;20429;-73
2022/12/14 03:45:22;;;;;;;22.60;13.30;;;-1.00;99.90;;;;;;5034827;28;20417;-74
2022/12/14 03:48:00;;;;;;;22.03;12.10;;;-1.00;99.90;;;;;;5024363;28;20583;-74
2022/12/14 03:50:47;;;;;;;28.40;14.60;;;-1.00;99.90;;;;;;5034454;28;20503;-74
2022/12/14 03:53:16;;;;;;;30.07;14.37;;;-1.00;99.90;;;;;;5034825;28;20430;-73
2022/12/14 03:56:11;;;;;;;25.10;12.50;;;-1.10;99.90;;;;;;5034581;28;20412;-73
2022/12/14 03:59:05;;;;;;;24.00;14.57;;;-1.10;99.90;;;;;;5017174;28;20515;-73
2022/12/14 04:02:00;;;;;;;24.27;14.77;;;-1.00;99.90;;;;;;5034105;28;20410;-74
2022/12/14 04:04:40;;;;;;;24.90;12.93;;;-1.10;99.90;;;;;;5034658;28;20413;-73
2022/12/14 04:07:14;;;;;;;23.63;12.50;;;-1.10;99.90;;;;;;5034617;28;20494;-73
2022/12/14 04:09:57;;;;;;;20.73;12.63;;;-1.10;99.90;;;;;;5034648;28;20471;-73
2022/12/14 04:21:23;;;;;;;29.30;14.63;;;-1.00;99.90;;;;;;5034132;28;20478;-73
2022/12/14 04:26:46;;;;;;;21.37;12.87;;;-1.10;99.90;;;;;;5034024;28;20561;-73
2022/12/14 04:32:25;;;;;;;23.80;13.90;;;-1.10;99.90;;;;;;4999843;28;20486;-73
2022/12/14 04:34:56;;;;;;;27.57;12.80;;;-1.10;99.90;;;;;;5034244;28;20436;-73
2022/12/14 04:37:25;;;;;;;25.47;14.07;;;-1.00;99.90;;;;;;5034024;28;20757;-72
2022/12/14 04:39:59;;;;;;;23.37;13.87;;;-1.10;99.90;;;;;;5033801;28;20508;-74
2022/12/14 04:42:33;;;;;;;24.90;14.83;;;-1.10;99.90;;;;;;5033668;28;20689;-71
2022/12/14 04:45:06;;;;;;;21.57;13.60;;;-1.10;99.90;;;;;;5033860;28;20423;-73
2022/12/14 04:47:41;;;;;;;20.80;13.53;;;-1.10;99.90;;;;;;5032541;28;20547;-73
2022/12/14 04:50:24;;;;;;;16.63;11.17;;;-1.10;99.90;;;;;;5033757;28;20379;-73
2022/12/14 04:53:07;;;;;;;24.20;12.70;;;-1.00;99.90;;;;;;5033356;28;20444;-73
2022/12/14 04:55:46;;;;;;;24.90;15.37;;;-1.00;99.90;;;;;;5033635;28;20379;-73
2022/12/14 04:58:25;;;;;;;22.03;12.60;;;-0.90;99.90;;;;;;5033766;28;20728;-73
2022/12/14 05:01:05;;;;;;;28.03;15.53;;;-0.90;99.90;;;;;;5033015;28;20818;-74
2022/12/14 05:03:34;;;;;;;24.80;13.63;;;-0.90;99.90;;;;;;5033479;28;20477;-73
2022/12/14 05:06:25;;;;;;;20.80;12.77;;;-0.90;99.90;;;;;;5033437;28;20399;-73
2022/12/14 05:09:06;;;;;;;25.77;15.07;;;-0.90;99.90;;;;;;5033629;28;20445;-73
2022/12/14 05:11:49;;;;;;;22.10;13.20;;;-0.90;99.90;;;;;;5032848;28;20435;-73
2022/12/14 05:14:33;;;;;;;25.57;13.93;;;-0.90;99.90;;;;;;5033449;28;20987;-73
2022/12/14 05:17:02;;;;;;;28.13;15.83;;;-0.90;99.90;;;;;;5033298;28;20404;-72
2022/12/14 05:19:28;;;;;;;20.00;12.70;;;-0.90;99.90;;;;;;5033220;28;20392;-74
2022/12/14 05:21:54;;;;;;;20.20;13.50;;;-0.90;99.90;;;;;;5033120;28;20497;-74
2022/12/14 05:24:19;;;;;;;19.43;13.77;;;-0.90;99.90;;;;;;5033315;28;20265;-73
2022/12/14 05:26:45;;;;;;;24.10;14.67;;;-0.90;99.90;;;;;;5033121;28;20398;-73
2022/12/14 05:29:11;;;;;;;19.50;12.87;;;-0.90;99.90;;;;;;5032999;28;20174;-74
2022/12/14 05:31:36;;;;;;;21.80;14.33;;;-0.90;99.90;;;;;;5032329;28;20249;-75
2022/12/14 05:34:02;;;;;;;23.93;15.80;;;-0.90;99.90;;;;;;5032783;28;20197;-74
2022/12/14 05:36:28;;;;;;;22.83;14.60;;;-0.90;99.90;;;;;;5032833;28;20173;-74
2022/12/14 05:38:53;;;;;;;27.13;14.53;;;-0.90;99.90;;;;;;5032786;28;20466;-73
2022/12/14 05:41:19;;;;;;;27.93;15.37;;;-0.90;99.90;;;;;;5032569;28;20681;-74
2022/12/14 05:43:44;;;;;;;22.97;14.00;;;-0.90;99.90;;;;;;5032868;28;20182;-74
2022/12/14 05:46:10;;;;;;;26.87;14.43;;;-0.80;99.90;;;;;;5032917;28;20205;-73
2022/12/14 05:48:36;;;;;;;29.20;15.40;;;-0.80;99.90;;;;;;5032793;28;20312;-74
2022/12/14 05:51:10;;;;;;;24.10;14.33;;;-0.80;99.90;;;;;;5032251;28;20558;-72
2022/12/14 05:53:37;;;;;;;25.20;14.47;;;-0.80;99.90;;;;;;5032658;28;20177;-74
2022/12/14 05:56:04;;;;;;;21.10;15.07;;;-0.80;99.90;;;;;;5032494;28;20406;-73
2022/12/14 05:58:31;;;;;;;23.60;14.10;;;-0.80;99.90;;;;;;5031968;28;20387;-73
2022/12/14 06:01:00;;;;;;;29.80;15.60;;;-0.80;99.90;;;;;;5032516;28;20400;-73
2022/12/14 06:03:26;;;;;;;29.03;16.23;;;-0.80;99.90;;;;;;5015049;28;20388;-74
2022/12/14 06:05:52;;;;;;;28.67;16.70;;;-0.80;99.90;;;;;;5032574;28;20391;-74
2022/12/14 06:08:17;;;;;;;26.70;16.30;;;-0.80;99.90;;;;;;5032644;28;20387;-73
2022/12/14 06:10:43;;;;;;;30.03;16.30;;;-0.90;99.90;;;;;;5032127;28;20673;-74
2022/12/14 06:13:08;;;;;;;31.80;16.70;;;-0.80;99.90;;;;;;5032103;28;20185;-73
2022/12/14 06:15:34;;;;;;;28.00;16.20;;;-0.90;99.90;;;;;;5032383;28;20170;-73
2022/12/14 06:17:59;;;;;;;25.70;15.63;;;-0.90;99.90;;;;;;5032386;28;20243;-73
2022/12/14 06:20:26;;;;;;;33.97;18.93;;;-0.90;99.90;;;;;;5032345;28;20265;-73
2022/12/14 06:22:53;;;;;;;32.00;17.80;;;-0.90;99.90;;;;;;5031945;28;20518;-73
2022/12/14 06:25:19;;;;;;;25.70;15.93;;;-0.90;99.90;;;;;;5031773;28;20392;-74
2022/12/14 06:27:45;;;;;;;35.23;17.43;;;-0.90;99.90;;;;;;5031704;28;20473;-73
2022/12/14 06:30:11;;;;;;;28.50;16.57;;;-0.80;99.90;;;;;;5032155;28;20178;-74
2022/12/14 06:32:36;;;;;;;30.80;17.77;;;-0.80;99.90;;;;;;5031714;28;20241;-74
2022/12/14 06:35:02;;;;;;;33.33;17.33;;;-0.80;99.90;;;;;;5031906;28;20456;-73
2022/12/14 06:37:29;;;;;;;35.97;18.77;;;-0.90;99.90;;;;;;5031723;28;20635;-73
2022/12/14 06:39:55;;;;;;;36.37;20.00;;;-0.80;99.90;;;;;;5031819;28;20204;-74
2022/12/14 06:42:20;;;;;;;31.63;18.60;;;-0.90;99.90;;;;;;5031766;28;20407;-73
2022/12/14 06:44:45;;;;;;;29.50;18.07;;;-0.90;99.90;;;;;;5031852;28;20181;-73
2022/12/14 06:47:11;;;;;;;41.40;21.43;;;-0.90;99.90;;;;;;5014490;28;20185;-74
2022/12/14 06:49:36;;;;;;;38.67;19.97;;;-0.90;99.90;;;;;;5031570;28;20858;-72
2022/12/14 06:52:02;;;;;;;36.67;20.40;;;-0.90;99.90;;;;;;5031347;28;20281;-73
2022/12/14 06:54:28;;;;;;;36.93;18.23;;;-0.90;99.90;;;;;;5013999;28;20308;-73
2022/12/14 06:56:53;;;;;;;36.53;21.10;;;-0.90;99.90;;;;;;5031750;28;20199;-72
2022/12/14 06:59:19;;;;;;;31.90;19.83;;;-1.00;99.90;;;;;;5002422;28;20428;-72
2022/12/14 07:01:44;;;;;;;32.97;20.00;;;-0.90;99.90;;;;;;5011263;28;20562;-72
2022/12/14 07:04:10;;;;;;;36.73;19.80;;;-1.00;99.90;;;;;;5012093;28;20214;-72
2022/12/14 07:06:39;;;;;;;32.53;18.10;;;-1.00;99.90;;;;;;5011501;28;20182;-71
2022/12/14 07:09:06;;;;;;;41.10;23.67;;;-1.00;99.90;;;;;;5011361;28;20511;-71
2022/12/14 07:11:32;;;;;;;47.60;24.67;;;-1.00;99.90;;;;;;5010807;28;20547;-71
2022/12/14 07:14:04;;;;;;;38.83;20.00;;;-1.00;99.90;;;;;;5011579;28;20903;-71
2022/12/14 07:16:31;;;;;;;44.40;20.03;;;-1.00;99.90;;;;;;5011133;28;20541;-71
2022/12/14 07:18:56;;;;;;;37.40;21.23;;;-1.00;99.90;;;;;;5010765;28;20500;-70
2022/12/14 07:21:24;;;;;;;38.30;20.20;;;-1.00;99.90;;;;;;5011668;28;20970;-71
2022/12/14 07:23:53;;;;;;;37.87;18.70;;;-1.00;99.90;;;;;;5011923;28;20582;-71
2022/12/14 07:26:26;;;;;;;31.03;17.80;;;-1.00;99.90;;;;;;5011958;28;20387;-71
2022/12/14 07:28:53;;;;;;;32.97;18.90;;;-1.10;99.90;;;;;;5011288;28;20776;-71
2022/12/14 07:31:21;;;;;;;43.17;21.67;;;-1.10;99.90;;;;;;5010982;28;20927;-71
2022/12/14 07:33:47;;;;;;;43.00;21.07;;;-1.10;99.90;;;;;;5011328;28;20828;-71
2022/12/14 07:36:15;;;;;;;39.33;20.63;;;-1.10;99.90;;;;;;5012063;28;20386;-71
2022/12/14 07:38:42;;;;;;;36.30;19.67;;;-1.20;99.90;;;;;;5011250;28;20389;-71
2022/12/14 07:41:11;;;;;;;38.83;19.77;;;-1.20;99.90;;;;;;5010702;28;20411;-70
2022/12/14 07:43:41;;;;;;;40.27;20.30;;;-1.20;99.90;;;;;;5011195;28;20410;-72
2022/12/14 07:46:10;;;;;;;39.90;19.67;;;-1.10;99.90;;;;;;5011091;28;20940;-72
2022/12/14 07:48:36;;;;;;;33.80;21.20;;;-1.10;99.90;;;;;;5011043;28;20422;-72
2022/12/14 07:51:07;;;;;;;33.33;17.50;;;-1.10;99.90;;;;;;5010972;28;20559;-71
2022/12/14 07:53:33;;;;;;;43.47;22.80;;;-1.00;99.90;;;;;;5011059;28;20876;-72
2022/12/14 07:56:01;;;;;;;37.50;21.90;;;-1.00;99.90;;;;;;5010936;28;20469;-72
2022/12/14 07:58:26;;;;;;;42.37;21.87;;;-1.00;99.90;;;;;;5011018;28;20402;-71
2022/12/14 08:00:52;;;;;;;36.30;21.23;;;-1.00;99.90;;;;;;5010921;28;20497;-72
2022/12/14 08:03:17;;;;;;;37.17;22.17;;;-0.90;99.90;;;;;;5010788;28;20210;-72
2022/12/14 08:05:43;;;;;;;48.37;22.30;;;-0.90;99.90;;;;;;5010987;28;20285;-71
2022/12/14 08:08:08;;;;;;;52.77;22.33;;;-0.90;99.90;;;;;;5010909;28;20714;-72
2022/12/14 08:10:34;;;;;;;46.80;28.30;;;-0.90;99.90;;;;;;5011321;28;20228;-72
2022/12/14 08:12:59;;;;;;;35.67;19.50;;;-0.90;99.90;;;;;;5012012;28;20241;-71
2022/12/14 08:15:25;;;;;;;37.10;22.80;;;-0.90;99.90;;;;;;5011324;28;20182;-72
2022/12/14 08:17:50;;;;;;;36.63;21.30;;;-0.80;99.90;;;;;;5011023;28;20175;-72
2022/12/14 08:20:16;;;;;;;36.73;20.67;;;-0.70;99.90;;;;;;5010927;28;20176;-72
2022/12/14 08:22:41;;;;;;;36.07;20.37;;;-0.60;99.90;;;;;;5013262;28;20208;-73
2022/12/14 08:25:07;;;;;;;35.80;20.60;;;-0.50;99.90;;;;;;5014274;28;20194;-72
2022/12/14 08:27:33;;;;;;;38.30;20.80;;;-0.50;99.90;;;;;;5014223;28;20263;-70
2022/12/14 08:29:58;;;;;;;34.73;20.40;;;-0.50;99.90;;;;;;5014096;28;20989;-72
2022/12/14 08:32:24;;;;;;;35.90;21.57;;;-0.50;99.90;;;;;;5013968;28;20219;-73
2022/12/14 08:34:49;;;;;;;38.70;21.00;;;-0.40;99.90;;;;;;5014233;28;20539;-72
2022/12/14 08:37:15;;;;;;;31.63;19.80;;;-0.30;99.90;;;;;;5014256;28;20180;-71
2022/12/14 08:39:40;;;;;;;33.77;20.23;;;-0.20;99.90;;;;;;5013801;28;20179;-72
2022/12/14 08:42:06;;;;;;;37.67;22.10;;;-0.20;99.90;;;;;;5013861;28;20194;-72
2022/12/14 08:44:31;;;;;;;42.03;21.50;;;-0.20;99.90;;;;;;5013934;28;20266;-72
2022/12/14 08:46:57;;;;;;;39.20;21.17;;;-0.30;99.90;;;;;;5013868;28;20239;-72
2022/12/14 08:49:22;;;;;;;41.30;21.07;;;-0.30;99.90;;;;;;5014235;28;20172;-71
2022/12/14 08:51:48;;;;;;;34.17;20.30;;;-0.20;99.90;;;;;;5013215;28;20573;-72
2022/12/14 08:54:13;;;;;;;35.67;20.23;;;-0.20;99.90;;;;;;5013913;28;20265;-72
2022/12/14 08:56:39;;;;;;;37.27;21.37;;;-0.20;99.90;;;;;;5012400;28;20181;-72
2022/12/14 08:59:04;;;;;;;48.97;22.20;;;-0.10;99.90;;;;;;5013615;28;20180;-72
2022/12/14 09:01:30;;;;;;;35.20;21.13;;;0.00;99.90;;;;;;5013031;28;20262;-72
2022/12/14 09:04:00;;;;;;;33.30;21.47;;;0.00;99.90;;;;;;5013464;28;20185;-72
2022/12/14 09:06:26;;;;;;;34.30;19.70;;;0.10;99.90;;;;;;5013085;28;20719;-71
2022/12/14 09:08:53;;;;;;;36.57;21.10;;;0.00;99.90;;;;;;5013647;28;20401;-72
2022/12/14 09:11:21;;;;;;;41.07;20.83;;;0.00;99.90;;;;;;5013059;28;20457;-72
2022/12/14 09:13:47;;;;;;;41.87;23.27;;;-0.10;99.90;;;;;;5013325;28;20540;-72
2022/12/14 09:16:18;;;;;;;44.00;23.00;;;-0.10;99.90;;;;;;5013496;28;20750;-71
2022/12/14 09:18:45;;;;;;;37.70;21.80;;;-0.10;99.90;;;;;;5013458;28;20389;-72
2022/12/14 09:21:11;;;;;;;42.20;23.50;;;-0.10;99.90;;;;;;5013076;28;20451;-70
2022/12/14 09:23:37;;;;;;;34.50;21.50;;;-0.20;99.90;;;;;;5013076;28;20429;-71
2022/12/14 09:26:05;;;;;;;38.27;22.17;;;-0.20;99.90;;;;;;5013410;28;20383;-72
2022/12/14 09:28:34;;;;;;;43.63;22.23;;;-0.20;99.90;;;;;;5012955;28;20578;-71
2022/12/14 09:31:03;;;;;;;47.53;23.20;;;-0.20;99.90;;;;;;5012744;28;20447;-71
2022/12/14 09:33:29;;;;;;;54.70;26.63;;;-0.30;99.90;;;;;;5011771;28;20929;-72
2022/12/14 09:36:10;;;;;;;52.10;25.37;;;-0.30;99.90;;;;;;5012945;28;20443;-72
2022/12/14 09:38:38;;;;;;;45.33;23.70;;;-0.40;99.90;;;;;;5013071;28;20379;-72
2022/12/14 09:41:06;;;;;;;45.60;26.00;;;-0.40;99.90;;;;;;4995057;28;20444;-69
2022/12/14 09:43:36;;;;;;;40.63;23.20;;;-0.40;99.90;;;;;;5012988;28;20796;-71
2022/12/14 09:46:10;;;;;;;46.63;25.27;;;-0.40;99.90;;;;;;5012803;28;20410;-72
2022/12/14 09:48:36;;;;;;;42.67;25.07;;;-0.40;99.90;;;;;;5012869;28;20840;-72
2022/12/14 09:51:02;;;;;;;42.77;24.23;;;-0.40;99.90;;;;;;5012407;28;20424;-70
2022/12/14 09:53:28;;;;;;;44.67;23.83;;;-0.40;99.90;;;;;;5012542;28;20429;-71
2022/12/14 09:55:55;;;;;;;43.67;23.80;;;-0.40;99.90;;;;;;5012688;28;20822;-71
2022/12/14 09:58:22;;;;;;;41.87;23.77;;;-0.40;99.90;;;;;;5013010;28;20460;-72
2022/12/14 10:01:06;;;;;;;40.40;23.20;;;-0.40;99.90;;;;;;5012554;28;20695;-72
2022/12/14 10:03:51;;;;;;;41.57;23.10;;;-0.40;99.90;;;;;;4997184;28;20385;-72
2022/12/14 10:06:40;;;;;;;44.97;23.67;;;-0.40;99.90;;;;;;5012899;28;20400;-71
2022/12/14 10:09:30;;;;;;;42.50;23.90;;;-0.40;99.90;;;;;;5012655;28;20497;-72
2022/12/14 10:12:07;;;;;;;47.63;24.93;;;-0.30;99.90;;;;;;5012051;28;20438;-71
2022/12/14 10:14:44;;;;;;;53.40;25.87;;;-0.30;99.90;;;;;;5012530;28;20912;-72
2022/12/14 10:17:35;;;;;;;37.47;24.10;;;-0.20;99.90;;;;;;5012832;28;20492;-73
2022/12/14 10:20:13;;;;;;;44.23;26.63;;;-0.30;99.90;;;;;;4962413;28;20399;-73
2022/12/14 10:22:45;;;;;;;46.07;24.83;;;-0.20;99.90;;;;;;5012369;28;20433;-71
2022/12/14 10:25:13;;;;;;;50.03;26.70;;;-0.20;99.90;;;;;;5012321;28;20475;-71
2022/12/14 10:27:44;;;;;;;60.80;29.57;;;-0.10;99.90;;;;;;5012497;28;20410;-70
2022/12/14 10:30:18;;;;;;;44.07;26.73;;;-0.10;99.90;;;;;;5012042;28;20446;-71
2022/12/14 10:33:04;;;;;;;58.53;27.20;;;-0.10;99.90;;;;;;5011697;28;20578;-72
2022/12/14 10:35:52;;;;;;;47.77;26.50;;;-0.10;99.90;;;;;;5011655;28;20972;-72
2022/12/14 10:38:40;;;;;;;56.57;29.10;;;-0.10;99.90;;;;;;5012232;28;20414;-72
2022/12/14 10:41:18;;;;;;;46.83;26.57;;;-0.20;99.90;;;;;;5011516;28;20430;-70
2022/12/14 10:43:50;;;;;;;33.10;21.20;;;-0.20;99.90;;;;;;5011591;28;20397;-71
2022/12/14 10:46:41;;;;;;;45.87;25.97;;;-0.10;99.90;;;;;;5011814;28;20439;-71
2022/12/14 10:49:18;;;;;;;46.27;25.97;;;-0.10;99.90;;;;;;5011489;28;20588;-71
2022/12/14 10:51:49;;;;;;;44.10;25.80;;;0.00;99.90;;;;;;5010946;28;20538;-72
2022/12/14 10:54:30;;;;;;;44.13;26.00;;;0.00;99.90;;;;;;5011871;28;20377;-72
2022/12/14 10:56:56;;;;;;;41.30;23.47;;;0.10;99.90;;;;;;5011773;28;20428;-72
2022/12/14 10:59:24;;;;;;;48.70;24.63;;;0.10;99.90;;;;;;5011961;28;20411;-72
2022/12/14 11:02:05;;;;;;;45.47;24.77;;;0.00;99.90;;;;;;5011143;28;20687;-73
2022/12/14 11:04:32;;;;;;;55.07;26.87;;;0.00;99.90;;;;;;5011696;28;20445;-72
2022/12/14 11:07:09;;;;;;;48.10;26.77;;;0.10;99.90;;;;;;5011728;28;20713;-72
2022/12/14 11:09:36;;;;;;;45.50;25.30;;;0.20;99.90;;;;;;5011615;28;20881;-72
2022/12/14 11:12:15;;;;;;;48.73;24.73;;;0.30;99.90;;;;;;5011522;28;20534;-72
2022/12/14 11:14:57;;;;;;;41.70;26.70;;;0.50;99.90;;;;;;5011384;28;20394;-72
2022/12/14 11:17:38;;;;;;;44.40;26.10;;;0.50;99.90;;;;;;4994054;28;20509;-72
2022/12/14 11:20:16;;;;;;;42.60;25.20;;;0.50;99.90;;;;;;5011365;28;20390;-72
2022/12/14 11:22:42;;;;;;;46.30;25.53;;;0.50;99.90;;;;;;5011060;28;20419;-72
2022/12/14 11:25:37;;;;;;;46.47;26.87;;;0.50;99.90;;;;;;5011367;28;20760;-73
2022/12/14 11:28:34;;;;;;;46.50;27.20;;;0.50;99.90;;;;;;5011870;28;20406;-72
2022/12/14 11:31:11;;;;;;;44.63;25.97;;;0.50;99.90;;;;;;5010873;28;20479;-71
2022/12/14 11:33:45;;;;;;;42.33;25.50;;;0.50;99.90;;;;;;5011271;28;20427;-72
2022/12/14 11:36:24;;;;;;;41.30;24.67;;;0.60;99.90;;;;;;4993998;28;20409;-72
2022/12/14 11:38:59;;;;;;;43.00;26.13;;;0.70;99.90;;;;;;5011739;28;20459;-71
2022/12/14 11:41:32;;;;;;;47.70;25.83;;;0.80;99.90;;;;;;5010825;28;20853;-71
2022/12/14 11:44:05;;;;;;;51.90;25.20;;;0.80;99.90;;;;;;5011531;28;20386;-71
2022/12/14 11:46:56;;;;;;;62.07;29.13;;;0.90;99.90;;;;;;5011025;28;20818;-72
2022/12/14 11:49:33;;;;;;;48.80;27.00;;;0.90;99.90;;;;;;5016106;28;20497;-72
2022/12/14 11:52:01;;;;;;;47.43;25.33;;;0.80;99.90;;;;;;5030402;28;20434;-72
2022/12/14 11:54:28;;;;;;;45.07;24.57;;;0.90;99.90;;;;;;5031004;28;20429;-72
2022/12/14 11:57:11;;;;;;;38.33;22.90;;;1.00;99.90;;;;;;5032589;28;20757;-72
2022/12/14 11:59:52;;;;;;;46.42;27.90;;;1.10;99.90;;;;;;5034088;28;20906;-72
2022/12/14 12:02:20;;;;;;;45.40;27.80;;;1.10;99.90;;;;;;5034329;28;20266;-73
2022/12/14 12:04:52;;;;;;;47.30;26.27;;;1.20;99.90;;;;;;5034842;28;20465;-72
2022/12/14 12:07:31;;;;;;;41.43;25.87;;;1.30;99.90;;;;;;5034769;28;20423;-72
2022/12/14 12:10:13;;;;;;;46.83;26.37;;;1.50;99.90;;;;;;5034800;28;20502;-72
2022/12/14 12:12:58;;;;;;;37.93;24.07;;;1.50;99.90;;;;;;5034022;28;20469;-71
2022/12/14 12:15:52;;;;;;;41.50;26.10;;;1.60;99.90;;;;;;5034350;28;20444;-72
2022/12/14 12:18:29;;;;;;;49.00;26.77;;;1.60;99.90;;;;;;5022716;28;20435;-73
2022/12/14 12:21:10;;;;;;;40.90;24.50;;;1.70;99.90;;;;;;5034180;28;20456;-72
2022/12/14 12:23:53;;;;;;;43.57;25.47;;;1.70;99.90;;;;;;5034302;28;20471;-72
2022/12/14 12:26:30;;;;;;;45.23;25.90;;;1.70;99.90;;;;;;5034302;28;20514;-72
2022/12/14 12:29:02;;;;;;;41.70;25.00;;;1.60;99.90;;;;;;5034312;28;21015;-73
2022/12/14 12:31:53;;;;;;;44.50;25.53;;;1.60;99.90;;;;;;5033446;28;20988;-72
2022/12/14 12:34:28;;;;;;;40.73;25.93;;;1.60;99.90;;;;;;5029512;28;20427;-72
2022/12/14 12:36:58;;;;;;;49.07;26.90;;;1.60;99.90;;;;;;5033994;28;20420;-72
2022/12/14 12:39:24;;;;;;;45.07;26.43;;;1.60;99.90;;;;;;5034080;28;20426;-72
2022/12/14 12:42:31;;;;;;;37.90;24.07;;;1.60;99.90;;;;;;5033478;28;20443;-72
2022/12/14 12:45:15;;;;;;;47.00;27.27;;;1.50;99.90;;;;;;5034041;28;20406;-73
2022/12/14 12:47:46;;;;;;;39.27;24.03;;;1.40;99.90;;;;;;5033871;28;20916;-72
2022/12/14 12:50:35;;;;;;;40.60;23.73;;;1.40;99.90;;;;;;5034094;28;20434;-73
2022/12/14 12:53:15;;;;;;;41.43;25.10;;;1.40;99.90;;;;;;5033434;28;20467;-73
2022/12/14 12:55:46;;;;;;;40.10;23.73;;;1.40;99.90;;;;;;5033997;28;20574;-73
2022/12/14 12:58:27;;;;;;;50.83;26.93;;;1.30;99.90;;;;;;5033678;28;20551;-73
2022/12/14 13:00:56;;;;;;;41.30;26.27;;;1.30;99.90;;;;;;5033588;28;20779;-73
2022/12/14 13:03:31;;;;;;;49.80;27.07;;;1.20;99.90;;;;;;5033543;28;20406;-73
2022/12/14 13:06:09;;;;;;;49.03;25.40;;;1.20;99.90;;;;;;5033575;28;20427;-72
2022/12/14 13:08:39;;;;;;;48.03;27.00;;;1.10;99.90;;;;;;5033194;28;20399;-73
2022/12/14 13:11:13;;;;;;;49.23;27.20;;;1.20;99.90;;;;;;5033168;28;20885;-71
2022/12/14 13:13:44;;;;;;;47.53;26.90;;;1.10;99.90;;;;;;5033149;28;20899;-72
2022/12/14 13:16:46;;;;;;;53.53;27.70;;;1.00;99.90;;;;;;5033484;28;20451;-72
2022/12/14 13:19:38;;;;;;;43.50;27.63;;;1.00;99.90;;;;;;4933730;29;20513;-72
2022/12/14 13:22:04;;;;;;;48.17;27.07;;;0.90;99.90;;;;;;5030965;28;20433;-73
2022/12/14 13:24:30;;;;;;;1999.90;999.90;;;0.90;99.90;;;;;;5033308;28;20421;-72
2022/12/14 13:27:14;;;;;;;98.40;28.37;;;0.80;99.90;;;;;;5033260;28;20908;-73
2022/12/14 13:30:17;;;;;;;89.50;26.50;;;0.80;99.90;;;;;;5032727;28;20533;-72
2022/12/14 13:32:48;;;;;;;55.23;26.87;;;0.80;99.90;;;;;;5032336;28;20444;-71
2022/12/14 13:35:39;;;;;;;63.27;29.10;;;0.80;99.90;;;;;;5032660;28;20414;-70
2022/12/14 13:38:28;;;;;;;102.87;32.00;;;0.80;99.90;;;;;;5033421;28;20898;-73
2022/12/14 13:41:16;;;;;;;71.00;27.73;;;0.90;99.90;;;;;;5032971;28;20780;-73
2022/12/14 13:43:52;;;;;;;99.27;28.63;;;0.90;99.90;;;;;;5032746;28;20446;-73
2022/12/14 13:46:22;;;;;;;98.23;27.53;;;0.90;99.90;;;;;;5022334;28;20451;-74
2022/12/14 13:48:52;;;;;;;69.40;29.50;;;0.80;99.90;;;;;;5028119;28;20444;-73
2022/12/14 13:51:29;;;;;;;57.77;28.43;;;0.80;99.90;;;;;;5031018;28;21045;-73
2022/12/14 13:53:58;;;;;;;66.77;26.90;;;0.80;99.90;;;;;;5031606;28;20945;-74
2022/12/14 13:56:33;;;;;;;49.23;26.63;;;0.80;99.90;;;;;;5031324;28;20439;-72
2022/12/14 13:59:01;;;;;;;50.23;26.63;;;0.80;99.90;;;;;;5031155;28;20825;-74
2022/12/14 14:01:38;;;;;;;46.83;25.80;;;0.80;99.90;;;;;;5031081;28;20869;-72
2022/12/14 14:04:12;;;;;;;53.33;25.47;;;0.80;99.90;;;;;;5031138;28;20929;-73
2022/12/14 14:06:42;;;;;;;52.83;25.23;;;0.70;99.90;;;;;;5027762;28;20858;-72
2022/12/14 14:09:28;;;;;;;51.03;27.00;;;0.70;99.90;;;;;;4993870;28;21032;-72
2022/12/14 14:12:04;;;;;;;44.60;25.33;;;0.60;99.90;;;;;;5011247;28;20447;-72
2022/12/14 14:14:43;;;;;;;48.83;24.50;;;0.60;99.90;;;;;;5011127;28;20427;-72
2022/12/14 14:17:25;;;;;;;48.83;26.70;;;0.60;99.90;;;;;;5029039;28;20424;-73
2022/12/14 14:19:55;;;;;;;45.63;26.27;;;0.50;99.90;;;;;;5050066;28;20426;-71
2022/12/14 14:22:26;;;;;;;43.10;24.63;;;0.40;99.90;;;;;;5050881;28;20773;-72
2022/12/14 14:25:04;;;;;;;54.40;26.53;;;0.40;99.90;;;;;;5050612;28;20460;-72
2022/12/14 14:27:37;;;;;;;46.50;25.43;;;0.30;99.90;;;;;;5017990;28;20524;-72
2022/12/14 14:30:23;;;;;;;113.53;46.80;;;0.30;99.90;;;;;;5031797;28;20869;-72
2022/12/14 14:32:50;;;;;;;46.03;24.63;;;0.20;99.90;;;;;;5032559;28;20788;-72
2022/12/14 14:35:34;;;;;;;47.90;26.47;;;0.20;99.90;;;;;;5033278;28;20390;-72
2022/12/14 14:38:03;;;;;;;53.10;28.47;;;0.20;99.90;;;;;;5033263;28;20416;-73
2022/12/14 14:40:34;;;;;;;45.90;26.70;;;0.20;99.90;;;;;;5032243;28;20517;-73